sensor_id;sensor_type;location;lat;lon;timestamp;P1;durP1;ratioP1;P2;durP2;ratioP2
49147;SDS011;41980;45.550;12.070;2023-05-10T00:03:30;4.93;;;2.30;;
49147;SDS011;41980;45.550;12.070;2023-05-10T00:09:32;3.60;;;2.13;;
49147;SDS011;41980;45.550;12.070;2023-05-10T00:15:34;3.58;;;2.35;;
49147;SDS011;41980;45.550;12.070;2023-05-10T00:21:36;5.00;;;2.80;;
49147;SDS011;41980;45.550;12.070;2023-05-10T00:27:38;3.25;;;1.90;;
49147;SDS011;41980;45.550;12.070;2023-05-10T00:33:40;2.30;;;1.52;;
49147;SDS011;41980;45.550;12.070;2023-05-10T00:39:43;2.97;;;1.55;;
49147;SDS011;41980;45.550;12.070;2023-05-10T00:45:46;3.78;;;1.80;;
49147;SDS011;41980;45.550;12.070;2023-05-10T00:51:48;2.90;;;1.60;;
49147;SDS011;41980;45.550;12.070;2023-05-10T00:57:50;2.40;;;1.65;;
49147;SDS011;41980;45.550;12.070;2023-05-10T01:03:53;3.20;;;1.75;;
49147;SDS011;41980;45.550;12.070;2023-05-10T01:09:56;3.03;;;1.40;;
49147;SDS011;41980;45.550;12.070;2023-05-10T01:15:59;2.67;;;1.42;;
49147;SDS011;41980;45.550;12.070;2023-05-10T01:40:35;2.22;;;1.20;;
49147;SDS011;41980;45.550;12.070;2023-05-10T01:46:43;1.88;;;1.25;;
49147;SDS011;41980;45.550;12.070;2023-05-10T01:52:51;3.10;;;1.40;;
49147;SDS011;41980;45.550;12.070;2023-05-10T01:58:56;2.33;;;1.42;;
49147;SDS011;41980;45.550;12.070;2023-05-10T02:04:59;3.10;;;1.50;;
49147;SDS011;41980;45.550;12.070;2023-05-10T02:11:01;2.53;;;1.70;;
49147;SDS011;41980;45.550;12.070;2023-05-10T02:17:05;2.83;;;1.50;;
49147;SDS011;41980;45.550;12.070;2023-05-10T02:23:10;2.65;;;1.40;;
49147;SDS011;41980;45.550;12.070;2023-05-10T02:29:13;3.08;;;1.67;;
49147;SDS011;41980;45.550;12.070;2023-05-10T02:35:17;2.58;;;1.58;;
49147;SDS011;41980;45.550;12.070;2023-05-10T02:41:20;3.47;;;1.48;;
49147;SDS011;41980;45.550;12.070;2023-05-10T02:47:23;2.88;;;1.77;;
49147;SDS011;41980;45.550;12.070;2023-05-10T02:53:30;2.90;;;1.85;;
49147;SDS011;41980;45.550;12.070;2023-05-10T02:59:34;2.78;;;1.60;;
49147;SDS011;41980;45.550;12.070;2023-05-10T03:05:36;3.28;;;1.63;;
49147;SDS011;41980;45.550;12.070;2023-05-10T03:23:59;3.50;;;1.60;;
49147;SDS011;41980;45.550;12.070;2023-05-10T03:30:07;2.55;;;1.45;;
49147;SDS011;41980;45.550;12.070;2023-05-10T03:36:11;3.35;;;1.55;;
49147;SDS011;41980;45.550;12.070;2023-05-10T03:42:13;3.53;;;1.80;;
49147;SDS011;41980;45.550;12.070;2023-05-10T03:48:15;2.58;;;1.40;;
49147;SDS011;41980;45.550;12.070;2023-05-10T03:54:17;5.70;;;2.15;;
49147;SDS011;41980;45.550;12.070;2023-05-10T04:00:21;3.15;;;1.45;;
49147;SDS011;41980;45.550;12.070;2023-05-10T04:06:26;3.92;;;2.13;;
49147;SDS011;41980;45.550;12.070;2023-05-10T04:12:29;2.58;;;1.70;;
49147;SDS011;41980;45.550;12.070;2023-05-10T04:18:31;4.03;;;1.33;;
49147;SDS011;41980;45.550;12.070;2023-05-10T04:24:33;2.88;;;1.80;;
49147;SDS011;41980;45.550;12.070;2023-05-10T04:30:35;4.40;;;1.90;;
49147;SDS011;41980;45.550;12.070;2023-05-10T04:36:37;2.63;;;1.48;;
49147;SDS011;41980;45.550;12.070;2023-05-10T04:42:40;3.03;;;1.70;;
49147;SDS011;41980;45.550;12.070;2023-05-10T04:48:43;2.72;;;1.85;;
49147;SDS011;41980;45.550;12.070;2023-05-10T04:54:45;2.78;;;1.70;;
49147;SDS011;41980;45.550;12.070;2023-05-10T05:00:47;5.10;;;1.95;;
49147;SDS011;41980;45.550;12.070;2023-05-10T05:06:49;2.85;;;1.85;;
49147;SDS011;41980;45.550;12.070;2023-05-10T05:12:51;5.05;;;2.03;;
49147;SDS011;41980;45.550;12.070;2023-05-10T05:18:53;3.05;;;1.80;;
49147;SDS011;41980;45.550;12.070;2023-05-10T05:24:55;2.95;;;1.88;;
49147;SDS011;41980;45.550;12.070;2023-05-10T05:30:59;3.58;;;2.03;;
49147;SDS011;41980;45.550;12.070;2023-05-10T05:37:01;2.45;;;1.60;;
49147;SDS011;41980;45.550;12.070;2023-05-10T05:43:03;3.33;;;1.90;;
49147;SDS011;41980;45.550;12.070;2023-05-10T05:49:05;2.70;;;1.50;;
49147;SDS011;41980;45.550;12.070;2023-05-10T05:55:07;2.75;;;1.55;;
49147;SDS011;41980;45.550;12.070;2023-05-10T06:01:09;3.00;;;1.90;;
49147;SDS011;41980;45.550;12.070;2023-05-10T06:07:11;3.47;;;1.52;;
49147;SDS011;41980;45.550;12.070;2023-05-10T06:13:13;2.97;;;1.67;;
49147;SDS011;41980;45.550;12.070;2023-05-10T06:19:16;2.33;;;1.58;;
49147;SDS011;41980;45.550;12.070;2023-05-10T06:25:18;2.72;;;2.00;;
49147;SDS011;41980;45.550;12.070;2023-05-10T06:31:21;4.20;;;1.83;;
49147;SDS011;41980;45.550;12.070;2023-05-10T06:37:23;2.65;;;1.80;;
49147;SDS011;41980;45.550;12.070;2023-05-10T06:43:25;2.60;;;1.60;;
49147;SDS011;41980;45.550;12.070;2023-05-10T06:49:29;3.40;;;1.88;;
49147;SDS011;41980;45.550;12.070;2023-05-10T06:55:32;3.08;;;1.75;;
49147;SDS011;41980;45.550;12.070;2023-05-10T07:01:34;2.08;;;1.40;;
49147;SDS011;41980;45.550;12.070;2023-05-10T07:07:36;2.88;;;1.48;;
49147;SDS011;41980;45.550;12.070;2023-05-10T07:13:38;2.75;;;1.85;;
49147;SDS011;41980;45.550;12.070;2023-05-10T07:19:43;2.75;;;1.95;;
49147;SDS011;41980;45.550;12.070;2023-05-10T07:25:46;3.90;;;2.30;;
49147;SDS011;41980;45.550;12.070;2023-05-10T07:31:49;3.45;;;2.33;;
49147;SDS011;41980;45.550;12.070;2023-05-10T07:37:51;4.82;;;2.90;;
49147;SDS011;41980;45.550;12.070;2023-05-10T07:43:53;3.42;;;2.70;;
49147;SDS011;41980;45.550;12.070;2023-05-10T07:49:55;4.95;;;2.50;;
49147;SDS011;41980;45.550;12.070;2023-05-10T07:55:57;3.22;;;2.53;;
49147;SDS011;41980;45.550;12.070;2023-05-10T08:01:59;3.75;;;2.50;;
49147;SDS011;41980;45.550;12.070;2023-05-10T08:08:02;3.97;;;2.42;;
49147;SDS011;41980;45.550;12.070;2023-05-10T08:14:03;3.72;;;2.53;;
49147;SDS011;41980;45.550;12.070;2023-05-10T08:20:05;5.32;;;3.35;;
49147;SDS011;41980;45.550;12.070;2023-05-10T08:26:09;7.78;;;3.95;;
49147;SDS011;41980;45.550;12.070;2023-05-10T08:32:11;5.88;;;3.58;;
49147;SDS011;41980;45.550;12.070;2023-05-10T08:38:13;5.00;;;3.13;;
49147;SDS011;41980;45.550;12.070;2023-05-10T08:44:15;7.47;;;4.57;;
49147;SDS011;41980;45.550;12.070;2023-05-10T08:50:19;5.20;;;3.45;;
49147;SDS011;41980;45.550;12.070;2023-05-10T08:56:23;6.68;;;3.80;;
49147;SDS011;41980;45.550;12.070;2023-05-10T09:02:25;3.75;;;2.83;;
49147;SDS011;41980;45.550;12.070;2023-05-10T09:08:28;4.35;;;3.03;;
49147;SDS011;41980;45.550;12.070;2023-05-10T09:14:32;5.10;;;3.20;;
49147;SDS011;41980;45.550;12.070;2023-05-10T09:20:37;4.47;;;2.83;;
49147;SDS011;41980;45.550;12.070;2023-05-10T09:32:49;5.70;;;3.85;;
49147;SDS011;41980;45.550;12.070;2023-05-10T09:38:51;4.97;;;3.58;;
49147;SDS011;41980;45.550;12.070;2023-05-10T09:44:54;5.05;;;4.00;;
49147;SDS011;41980;45.550;12.070;2023-05-10T09:51:04;5.65;;;4.38;;
49147;SDS011;41980;45.550;12.070;2023-05-10T09:57:06;5.68;;;4.13;;
49147;SDS011;41980;45.550;12.070;2023-05-10T10:03:23;4.82;;;3.67;;
49147;SDS011;41980;45.550;12.070;2023-05-10T10:09:27;5.13;;;3.88;;
49147;SDS011;41980;45.550;12.070;2023-05-10T10:15:29;6.75;;;4.20;;
49147;SDS011;41980;45.550;12.070;2023-05-10T10:21:33;5.07;;;4.05;;
49147;SDS011;41980;45.550;12.070;2023-05-10T10:27:40;5.07;;;3.67;;
49147;SDS011;41980;45.550;12.070;2023-05-10T10:40:00;4.40;;;3.57;;
49147;SDS011;41980;45.550;12.070;2023-05-10T10:46:22;5.20;;;3.72;;
49147;SDS011;41980;45.550;12.070;2023-05-10T10:52:25;6.85;;;4.60;;
49147;SDS011;41980;45.550;12.070;2023-05-10T10:58:34;6.40;;;3.92;;
49147;SDS011;41980;45.550;12.070;2023-05-10T11:16:53;5.25;;;3.60;;
49147;SDS011;41980;45.550;12.070;2023-05-10T11:22:55;5.32;;;3.92;;
49147;SDS011;41980;45.550;12.070;2023-05-10T11:28:57;6.45;;;3.72;;
49147;SDS011;41980;45.550;12.070;2023-05-10T11:35:06;4.05;;;3.08;;
49147;SDS011;41980;45.550;12.070;2023-05-10T11:41:09;5.05;;;3.42;;
49147;SDS011;41980;45.550;12.070;2023-05-10T11:47:13;5.82;;;3.60;;
49147;SDS011;41980;45.550;12.070;2023-05-10T11:53:15;6.45;;;4.20;;
49147;SDS011;41980;45.550;12.070;2023-05-10T11:59:18;8.10;;;5.40;;
49147;SDS011;41980;45.550;12.070;2023-05-10T12:05:21;5.78;;;4.47;;
49147;SDS011;41980;45.550;12.070;2023-05-10T12:11:26;6.60;;;4.90;;
49147;SDS011;41980;45.550;12.070;2023-05-10T12:17:29;6.03;;;5.00;;
49147;SDS011;41980;45.550;12.070;2023-05-10T12:23:31;7.68;;;4.50;;
49147;SDS011;41980;45.550;12.070;2023-05-10T12:29:33;6.43;;;4.85;;
49147;SDS011;41980;45.550;12.070;2023-05-10T12:41:43;7.75;;;5.47;;
49147;SDS011;41980;45.550;12.070;2023-05-10T12:47:45;5.47;;;4.22;;
49147;SDS011;41980;45.550;12.070;2023-05-10T12:53:47;8.15;;;5.47;;
49147;SDS011;41980;45.550;12.070;2023-05-10T12:59:49;6.63;;;5.10;;
49147;SDS011;41980;45.550;12.070;2023-05-10T13:05:51;7.30;;;5.72;;
49147;SDS011;41980;45.550;12.070;2023-05-10T13:11:53;9.00;;;5.97;;
49147;SDS011;41980;45.550;12.070;2023-05-10T13:17:55;10.63;;;7.55;;
49147;SDS011;41980;45.550;12.070;2023-05-10T13:23:57;9.02;;;7.22;;
49147;SDS011;41980;45.550;12.070;2023-05-10T13:29:59;7.88;;;6.18;;
49147;SDS011;41980;45.550;12.070;2023-05-10T13:36:01;7.97;;;6.28;;
49147;SDS011;41980;45.550;12.070;2023-05-10T13:42:03;8.10;;;5.88;;
49147;SDS011;41980;45.550;12.070;2023-05-10T13:48:06;12.02;;;9.40;;
49147;SDS011;41980;45.550;12.070;2023-05-10T13:54:09;10.90;;;6.97;;
49147;SDS011;41980;45.550;12.070;2023-05-10T14:00:11;9.48;;;6.18;;
49147;SDS011;41980;45.550;12.070;2023-05-10T14:06:13;8.88;;;7.40;;
49147;SDS011;41980;45.550;12.070;2023-05-10T14:12:15;12.50;;;8.85;;
49147;SDS011;41980;45.550;12.070;2023-05-10T14:18:17;8.73;;;6.47;;
49147;SDS011;41980;45.550;12.070;2023-05-10T14:24:19;9.45;;;8.07;;
49147;SDS011;41980;45.550;12.070;2023-05-10T14:30:21;10.52;;;8.05;;
49147;SDS011;41980;45.550;12.070;2023-05-10T14:36:23;7.78;;;6.75;;
49147;SDS011;41980;45.550;12.070;2023-05-10T14:42:25;8.60;;;6.10;;
49147;SDS011;41980;45.550;12.070;2023-05-10T14:48:28;8.80;;;6.55;;
49147;SDS011;41980;45.550;12.070;2023-05-10T14:54:29;10.95;;;9.38;;
49147;SDS011;41980;45.550;12.070;2023-05-10T15:00:31;12.93;;;10.82;;
49147;SDS011;41980;45.550;12.070;2023-05-10T15:06:34;11.00;;;8.60;;
49147;SDS011;41980;45.550;12.070;2023-05-10T15:12:37;10.77;;;9.15;;
49147;SDS011;41980;45.550;12.070;2023-05-10T15:18:39;10.05;;;7.97;;
49147;SDS011;41980;45.550;12.070;2023-05-10T15:24:41;8.82;;;7.40;;
49147;SDS011;41980;45.550;12.070;2023-05-10T15:30:43;8.45;;;6.95;;
49147;SDS011;41980;45.550;12.070;2023-05-10T15:36:45;11.43;;;10.25;;
49147;SDS011;41980;45.550;12.070;2023-05-10T15:42:47;11.48;;;10.27;;
49147;SDS011;41980;45.550;12.070;2023-05-10T15:48:49;13.60;;;10.32;;
49147;SDS011;41980;45.550;12.070;2023-05-10T15:54:51;11.55;;;10.40;;
49147;SDS011;41980;45.550;12.070;2023-05-10T16:00:53;13.85;;;12.45;;
49147;SDS011;41980;45.550;12.070;2023-05-10T16:06:55;10.10;;;8.48;;
49147;SDS011;41980;45.550;12.070;2023-05-10T16:12:59;12.70;;;11.40;;
49147;SDS011;41980;45.550;12.070;2023-05-10T16:19:02;11.57;;;10.38;;
49147;SDS011;41980;45.550;12.070;2023-05-10T16:25:05;13.02;;;11.73;;
49147;SDS011;41980;45.550;12.070;2023-05-10T16:31:07;14.68;;;12.07;;
49147;SDS011;41980;45.550;12.070;2023-05-10T16:37:09;11.93;;;10.63;;
49147;SDS011;41980;45.550;12.070;2023-05-10T16:43:11;10.98;;;9.88;;
49147;SDS011;41980;45.550;12.070;2023-05-10T16:49:14;13.73;;;12.40;;
49147;SDS011;41980;45.550;12.070;2023-05-10T16:55:16;12.82;;;11.50;;
49147;SDS011;41980;45.550;12.070;2023-05-10T17:01:18;10.75;;;9.57;;
49147;SDS011;41980;45.550;12.070;2023-05-10T17:07:20;16.50;;;14.80;;
49147;SDS011;41980;45.550;12.070;2023-05-10T17:13:22;10.98;;;9.63;;
49147;SDS011;41980;45.550;12.070;2023-05-10T17:19:25;12.70;;;11.40;;
49147;SDS011;41980;45.550;12.070;2023-05-10T17:25:28;11.75;;;10.13;;
49147;SDS011;41980;45.550;12.070;2023-05-10T17:31:32;14.60;;;13.10;;
49147;SDS011;41980;45.550;12.070;2023-05-10T17:37:34;17.42;;;15.70;;
49147;SDS011;41980;45.550;12.070;2023-05-10T17:43:37;16.23;;;13.75;;
49147;SDS011;41980;45.550;12.070;2023-05-10T17:49:39;17.65;;;15.95;;
49147;SDS011;41980;45.550;12.070;2023-05-10T17:55:41;14.15;;;12.70;;
49147;SDS011;41980;45.550;12.070;2023-05-10T18:01:44;16.67;;;14.98;;
49147;SDS011;41980;45.550;12.070;2023-05-10T18:07:46;15.13;;;13.52;;
49147;SDS011;41980;45.550;12.070;2023-05-10T18:13:50;16.00;;;14.38;;
49147;SDS011;41980;45.550;12.070;2023-05-10T18:19:52;20.70;;;16.90;;
49147;SDS011;41980;45.550;12.070;2023-05-10T18:25:54;13.00;;;11.60;;
49147;SDS011;41980;45.550;12.070;2023-05-10T18:31:57;15.25;;;13.65;;
49147;SDS011;41980;45.550;12.070;2023-05-10T18:37:59;16.95;;;15.30;;
49147;SDS011;41980;45.550;12.070;2023-05-10T18:44:01;14.65;;;13.20;;
49147;SDS011;41980;45.550;12.070;2023-05-10T18:50:03;15.20;;;13.32;;
49147;SDS011;41980;45.550;12.070;2023-05-10T18:56:06;17.20;;;15.10;;
49147;SDS011;41980;45.550;12.070;2023-05-10T19:02:08;20.95;;;18.85;;
49147;SDS011;41980;45.550;12.070;2023-05-10T19:08:10;15.02;;;12.90;;
49147;SDS011;41980;45.550;12.070;2023-05-10T19:14:13;12.40;;;11.02;;
49147;SDS011;41980;45.550;12.070;2023-05-10T19:20:15;12.43;;;10.20;;
49147;SDS011;41980;45.550;12.070;2023-05-10T19:26:17;10.82;;;9.73;;
49147;SDS011;41980;45.550;12.070;2023-05-10T19:32:19;9.52;;;8.52;;
49147;SDS011;41980;45.550;12.070;2023-05-10T19:38:22;8.25;;;7.32;;
49147;SDS011;41980;45.550;12.070;2023-05-10T19:44:25;8.73;;;7.75;;
49147;SDS011;41980;45.550;12.070;2023-05-10T19:50:27;9.05;;;7.90;;
49147;SDS011;41980;45.550;12.070;2023-05-10T19:56:29;10.90;;;8.23;;
49147;SDS011;41980;45.550;12.070;2023-05-10T20:02:31;8.85;;;6.78;;
49147;SDS011;41980;45.550;12.070;2023-05-10T20:08:33;7.63;;;6.13;;
49147;SDS011;41980;45.550;12.070;2023-05-10T20:14:35;6.65;;;5.90;;
49147;SDS011;41980;45.550;12.070;2023-05-10T20:20:37;10.32;;;8.63;;
49147;SDS011;41980;45.550;12.070;2023-05-10T20:26:40;6.47;;;5.78;;
49147;SDS011;41980;45.550;12.070;2023-05-10T20:32:42;6.97;;;6.18;;
49147;SDS011;41980;45.550;12.070;2023-05-10T20:38:44;7.55;;;5.70;;
49147;SDS011;41980;45.550;12.070;2023-05-10T20:44:46;6.80;;;5.03;;
49147;SDS011;41980;45.550;12.070;2023-05-10T20:50:48;6.35;;;5.07;;
49147;SDS011;41980;45.550;12.070;2023-05-10T20:56:55;5.45;;;4.32;;
49147;SDS011;41980;45.550;12.070;2023-05-10T21:02:57;4.75;;;4.05;;
49147;SDS011;41980;45.550;12.070;2023-05-10T21:08:59;5.57;;;4.30;;
49147;SDS011;41980;45.550;12.070;2023-05-10T21:15:04;5.13;;;4.15;;
49147;SDS011;41980;45.550;12.070;2023-05-10T21:21:09;5.53;;;4.25;;
49147;SDS011;41980;45.550;12.070;2023-05-10T21:27:11;6.18;;;4.47;;
49147;SDS011;41980;45.550;12.070;2023-05-10T21:33:13;5.43;;;4.75;;
49147;SDS011;41980;45.550;12.070;2023-05-10T21:39:15;6.40;;;4.75;;
49147;SDS011;41980;45.550;12.070;2023-05-10T21:45:19;6.28;;;5.25;;
49147;SDS011;41980;45.550;12.070;2023-05-10T21:51:23;5.75;;;4.53;;
49147;SDS011;41980;45.550;12.070;2023-05-10T21:57:25;5.78;;;4.88;;
49147;SDS011;41980;45.550;12.070;2023-05-10T22:03:28;5.68;;;4.85;;
49147;SDS011;41980;45.550;12.070;2023-05-10T22:09:31;4.75;;;4.25;;
49147;SDS011;41980;45.550;12.070;2023-05-10T22:15:33;5.20;;;4.53;;
49147;SDS011;41980;45.550;12.070;2023-05-10T22:21:35;6.28;;;4.32;;
49147;SDS011;41980;45.550;12.070;2023-05-10T22:27:37;5.80;;;3.90;;
49147;SDS011;41980;45.550;12.070;2023-05-10T22:33:39;4.88;;;4.38;;
49147;SDS011;41980;45.550;12.070;2023-05-10T22:39:41;5.22;;;4.32;;
49147;SDS011;41980;45.550;12.070;2023-05-10T22:45:43;4.55;;;3.85;;
49147;SDS011;41980;45.550;12.070;2023-05-10T22:51:45;4.18;;;3.67;;
49147;SDS011;41980;45.550;12.070;2023-05-10T22:57:47;4.03;;;3.15;;
49147;SDS011;41980;45.550;12.070;2023-05-10T23:03:49;5.20;;;3.05;;
49147;SDS011;41980;45.550;12.070;2023-05-10T23:09:54;3.80;;;3.00;;
49147;SDS011;41980;45.550;12.070;2023-05-10T23:16:03;3.13;;;2.58;;
49147;SDS011;41980;45.550;12.070;2023-05-10T23:22:06;3.65;;;2.45;;
49147;SDS011;41980;45.550;12.070;2023-05-10T23:28:10;3.25;;;2.50;;
49147;SDS011;41980;45.550;12.070;2023-05-10T23:34:12;2.85;;;1.90;;
49147;SDS011;41980;45.550;12.070;2023-05-10T23:40:14;2.00;;;1.48;;
49147;SDS011;41980;45.550;12.070;2023-05-10T23:46:16;4.05;;;1.80;;
49147;SDS011;41980;45.550;12.070;2023-05-10T23:52:18;5.88;;;1.95;;
49147;SDS011;41980;45.550;12.070;2023-05-10T23:58:23;2.20;;;1.60;;
